Mariinsk, Russia
Current Conditions -  °F | °C
As of 9:00 PM on Wednesday 22 Oct 2014 (Local Time) from UNEE Reporting Station
Snow Showers Snow Showers  
Wind Chill: 21°   Ceiling: 1000
Heat Index: 30°   Visibility: 1.9mi
Dew Point: 30°   Wind: 11mph
Humidity: 100%   Direction: 190°S
Pressure: 30.03"   Gusts: NA
Location:  56.21°N, 87.75°E
Report Text: UNEE 221400Z 19005MPS 3100 -SHSN OVC010CB M01/M01 Q1017 NOSIGRMK QFE740 23491040
Loading
Personal Weather Stations






























Interactive Weather Map
Tropical Storm Tracking
New forecast layout! Learn more

10-Day Weather Forecast

Advertisements
Track Severe Weather on mobile